ENSG/SOG METAR and TAF weather

Enter ICAO airport designator
Station Type Date Time Source
ENSG METAR 2022/05/25 19:50 UTC NOAA

ENSG 251950Z 24006KT 9999 FEW045 BKN100 09/02 Q1000 RMK WIND 3806FT 17015KT


Station Type Date Time Source
ENSG Decoded METAR 2022/05/25 19:50 UTC NOAA

Sogndal / Haukasen, Norway (ENSG) 61-09N 007-08E 497M
May 25, 2022 - 03:50 PM EDT / 2022.05.25 1950 UTC
Wind: from the WSW (240 degrees) at 7 MPH (6 KT):0
Visibility: greater than 7 mile(s):0
Sky conditions: mostly cloudy
Temperature: 48 F (9 C)
Dew Point: 35 F (2 C)
Relative Humidity: 61%
Pressure (altimeter): 29.53 in. Hg (1000 hPa)
ob: ENSG 251950Z 24006KT 9999 FEW045 BKN100 09/02 Q1000 RMK WIND 3806FT 17015KT
cycle: 20

Station Type Date Time Source
ENSG TAF UTC NOAA

Error!

Example: see airport list